Puvirnituq Airport
CYPX : now visible

Airfield :











YOU CAN JOIN US ON...

 
LOGIN :

Register | Disclaimer

   EN    FR    IT 

 









Legend :    VFR   Marginal VFR   IFR   Intensive IFR   Very Intensive IFR
Visi :
Ceiling :
>= 8 km
>= 3000ft
5 to 8 km
1000 to 3000 ft
1500m to 5 km
500 to 1000 ft
800 to 1500m
200 to 500 ft
< 800m
< 200 ft
Symbols :   Thunderstorms  Fog  Heavy snow  Heavy precipitations  Wind > 20 kt






- Airport Elevation : 74 ft
- IATA code : YPX


CYPX - Puvirnituq

CURRENT METAR :
  • 110300Z AUTO 06004KT 9SM CLR 19/12 A2977 RMK SLP083 DENSITY ALT 700FT

EXPIRED METARs :
  • 110200Z AUTO 30004KT 9SM FEW250 19/12 A2977 RMK SLP083 DENSITY ALT 700FT
  • 110100Z AUTO 30007KT 9SM FEW240 20/13 A2977 RMK SLP083 DENSITY ALT 800FT

TAF TAF CYPX
Valid from the 11 at 00:00 until the 11 at 12:00 UTC


102338Z 1100/1112 31015KT P6SM BKN050
TEMPO 1100/1112 SCT050
BECMG 1108/1110 07008KT RMK FCST BASED ON AUTO OBS. NXT FCST BY 110600Z
CZUL FIR / North America



MET'MAP, your aeronautical weather chart ! - Copyright ORBIFLY December 2007 - Disclaimer

ORBIFLY MET'MAP TEAM :

Programming & Development : Alexandra Zaïnal
Concept & original design : Baudouin d'Aumeries
Assistance for programming : Marc-Olivier Méhu
Technical & hardware support : Manuel Goepfert

Contact : metmap@orbifly.com




SOURCES & CREDITS :

   NOAA       Earth
Advisory